Time,TemperatureF,DewpointF,PressureIn,WindDirection,WindDirectionDegrees,WindSpeedMPH,WindSpeedGustMPH,Humidity,HourlyPrecipIn,Conditions,Clouds,dailyrainin,SolarRadiationWatts/m^2,SoftwareType,DateUTC
2013-05-08 00:02:00,61.0,53.0,-100.00,SSW,205,4.0,9.0,76,0.00,,,0.14,0.000000,,2013-05-08 04:02:00,
2013-05-08 00:33:00,61.0,54.0,-100.00,SSW,201,4.0,10.0,77,0.00,,,0.01,0.000000,,2013-05-08 04:33:00,
2013-05-08 00:43:00,61.0,54.0,-100.00,SSW,201,4.0,10.0,77,0.00,,,0.01,0.000000,,2013-05-08 04:43:00,
2013-05-08 00:53:00,61.0,54.0,-100.00,SSW,201,4.0,10.0,77,0.00,,,0.01,0.000000,,2013-05-08 04:53:00,
2013-05-08 01:02:00,61.0,54.0,-100.00,SSW,201,4.0,10.0,77,0.00,,,0.01,0.000000,,2013-05-08 05:02:00,
2013-05-08 01:32:00,58.0,54.0,-100.00,SW,224,2.0,8.0,86,0.00,,,0.01,0.000000,,2013-05-08 05:32:00,
2013-05-08 01:42:00,58.0,54.0,-100.00,SW,224,2.0,8.0,86,0.00,,,0.01,0.000000,,2013-05-08 05:42:00,
2013-05-08 01:52:00,58.0,54.0,-100.00,SW,224,2.0,8.0,86,0.00,,,0.01,0.000000,,2013-05-08 05:52:00,
2013-05-08 02:02:00,58.0,54.0,-100.00,SW,224,2.0,8.0,86,0.00,,,0.01,0.000000,,2013-05-08 06:02:00,
2013-05-08 02:32:00,57.0,54.0,-100.00,West,267,0.0,4.0,89,0.00,,,0.00,0.000000,,2013-05-08 06:32:00,
2013-05-08 02:42:00,57.0,54.0,-100.00,West,267,0.0,4.0,89,0.00,,,0.00,0.000000,,2013-05-08 06:42:00,
2013-05-08 02:52:00,57.0,54.0,-100.00,West,267,0.0,4.0,89,0.00,,,0.00,0.000000,,2013-05-08 06:52:00,
2013-05-08 03:02:00,57.0,54.0,-100.00,West,267,0.0,4.0,89,0.00,,,0.00,0.000000,,2013-05-08 07:02:00,
2013-05-08 03:32:00,54.0,52.0,-100.00,West,280,0.0,3.0,92,0.00,,,0.00,0.000000,,2013-05-08 07:32:00,
2013-05-08 03:42:00,54.0,52.0,-100.00,West,280,0.0,3.0,92,0.00,,,0.00,0.000000,,2013-05-08 07:42:00,
2013-05-08 03:52:00,54.0,52.0,-100.00,West,280,0.0,3.0,92,0.00,,,0.00,0.000000,,2013-05-08 07:52:00,
2013-05-08 04:02:00,54.0,52.0,-100.00,West,280,0.0,3.0,92,0.00,,,0.00,0.000000,,2013-05-08 08:02:00,
2013-05-08 04:22:00,52.0,50.0,-100.00,NNW,340,0.0,3.0,93,0.00,,,0.00,0.000000,,2013-05-08 08:22:00,
2013-05-08 04:32:00,52.0,50.0,-100.00,NNW,340,0.0,3.0,93,0.00,,,0.00,0.000000,,2013-05-08 08:32:00,
2013-05-08 04:43:00,52.0,50.0,-100.00,NNW,340,0.0,3.0,93,0.00,,,0.00,0.000000,,2013-05-08 08:43:00,
2013-05-08 04:52:00,52.0,50.0,-100.00,NNW,340,0.0,3.0,93,0.00,,,0.00,0.000000,,2013-05-08 08:52:00,
2013-05-08 05:02:00,52.0,50.0,-100.00,NNW,340,0.0,3.0,93,0.00,,,0.00,0.000000,,2013-05-08 09:02:00,
2013-05-08 05:32:00,50.0,48.0,-100.00,NNW,330,1.0,3.0,94,0.00,,,0.00,0.000000,,2013-05-08 09:32:00,
2013-05-08 05:42:00,50.0,48.0,-100.00,NNW,330,1.0,3.0,94,0.00,,,0.00,0.000000,,2013-05-08 09:42:00,
2013-05-08 05:53:00,50.0,48.0,-100.00,NNW,330,1.0,3.0,94,0.00,,,0.00,0.000000,,2013-05-08 09:53:00,
2013-05-08 06:02:00,50.0,48.0,-100.00,NNW,330,1.0,3.0,94,0.00,,,0.00,0.000000,,2013-05-08 10:02:00,
2013-05-08 06:33:00,48.0,46.0,-100.00,WNW,299,0.0,2.0,94,0.00,,,0.00,0.000000,,2013-05-08 10:33:00,
2013-05-08 06:42:00,48.0,46.0,-100.00,WNW,299,0.0,2.0,94,0.00,,,0.00,0.000000,,2013-05-08 10:42:00,
2013-05-08 06:53:00,48.0,46.0,-100.00,WNW,299,0.0,2.0,94,0.00,,,0.00,0.000000,,2013-05-08 10:53:00,
2013-05-08 07:02:00,48.0,46.0,-100.00,WNW,299,0.0,2.0,94,0.00,,,0.00,0.000000,,2013-05-08 11:02:00,
2013-05-08 07:33:00,53.0,51.0,-100.00,SSW,209,0.0,3.0,94,0.00,,,0.00,53.000000,,2013-05-08 11:33:00,
2013-05-08 07:42:00,53.0,51.0,-100.00,SSW,209,0.0,3.0,94,0.00,,,0.00,53.000000,,2013-05-08 11:42:00,
2013-05-08 07:52:00,53.0,51.0,-100.00,SSW,209,0.0,3.0,94,0.00,,,0.00,53.000000,,2013-05-08 11:52:00,
2013-05-08 08:02:00,53.0,51.0,-100.00,SSW,209,0.0,3.0,94,0.00,,,0.00,53.000000,,2013-05-08 12:02:00,
2013-05-08 09:32:00,67.0,56.0,-100.00,WSW,237,6.0,9.0,69,-99.99,,,0.00,481.000000,,2013-05-08 13:32:00,
2013-05-08 09:42:00,67.0,56.0,-100.00,WSW,237,6.0,9.0,69,-99.99,,,0.00,481.000000,,2013-05-08 13:42:00,
2013-05-08 09:52:00,67.0,56.0,-100.00,WSW,237,6.0,9.0,69,-99.99,,,0.00,481.000000,,2013-05-08 13:52:00,
2013-05-08 10:02:00,67.0,56.0,-100.00,WSW,237,6.0,9.0,69,-99.99,,,0.00,481.000000,,2013-05-08 14:02:00,
2013-05-08 10:32:00,70.0,55.0,-100.00,WSW,240,5.0,12.0,59,0.00,,,0.00,712.000000,,2013-05-08 14:32:00,
2013-05-08 10:42:00,70.0,55.0,-100.00,WSW,240,5.0,12.0,59,0.00,,,0.00,712.000000,,2013-05-08 14:42:00,
2013-05-08 10:52:00,70.0,55.0,-100.00,WSW,240,5.0,12.0,59,0.00,,,0.00,712.000000,,2013-05-08 14:52:00,
2013-05-08 11:02:00,70.0,55.0,-100.00,WSW,240,5.0,12.0,59,0.00,,,0.00,712.000000,,2013-05-08 15:02:00,
2013-05-08 11:33:00,69.0,56.0,-100.00,SSE,160,8.0,13.0,63,0.00,,,0.00,890.000000,,2013-05-08 15:33:00,
2013-05-08 11:42:00,69.0,56.0,-100.00,SSE,160,8.0,13.0,63,0.00,,,0.00,890.000000,,2013-05-08 15:42:00,
2013-05-08 11:53:00,69.0,56.0,-100.00,SSE,160,8.0,13.0,63,0.00,,,0.00,890.000000,,2013-05-08 15:53:00,
2013-05-08 12:03:00,69.0,56.0,-100.00,SSE,160,8.0,13.0,63,0.00,,,0.00,890.000000,,2013-05-08 16:03:00,
2013-05-08 12:33:00,70.0,55.0,-100.00,SSW,192,8.0,14.0,59,0.00,,,-99.99,1041.000000,,2013-05-08 16:33:00,
2013-05-08 12:42:00,70.0,55.0,-100.00,SSW,192,8.0,14.0,59,0.00,,,-99.99,1041.000000,,2013-05-08 16:42:00,
2013-05-08 12:52:00,70.0,55.0,-100.00,SSW,192,8.0,14.0,59,0.00,,,-99.99,1041.000000,,2013-05-08 16:52:00,
2013-05-08 13:02:00,70.0,55.0,-100.00,SSW,192,8.0,14.0,59,0.00,,,-99.99,1041.000000,,2013-05-08 17:02:00,
2013-05-08 13:52:00,70.0,57.0,-100.00,SSW,194,10.0,17.0,64,0.00,,,-99.99,1113.000000,,2013-05-08 17:52:00,
2013-05-08 14:02:00,70.0,57.0,-100.00,SSW,194,10.0,17.0,64,0.00,,,-99.99,1113.000000,,2013-05-08 18:02:00,
2013-05-08 14:32:00,70.0,56.0,-100.00,South,186,11.0,18.0,62,0.00,,,0.00,1117.000000,,2013-05-08 18:32:00,
2013-05-08 14:42:00,70.0,56.0,-100.00,South,186,11.0,18.0,62,0.00,,,0.00,1117.000000,,2013-05-08 18:42:00,
2013-05-08 14:52:00,70.0,56.0,-100.00,South,186,11.0,18.0,62,0.00,,,0.00,1117.000000,,2013-05-08 18:52:00,
2013-05-08 15:01:00,70.0,56.0,-100.00,South,186,11.0,18.0,62,0.00,,,0.00,1117.000000,,2013-05-08 19:01:00,
2013-05-08 15:32:00,70.0,50.0,-100.00,SSW,198,12.0,18.0,50,0.00,,,-99.99,1051.000000,,2013-05-08 19:32:00,
2013-05-08 15:42:00,70.0,50.0,-100.00,SSW,198,12.0,18.0,50,0.00,,,-99.99,1051.000000,,2013-05-08 19:42:00,
2013-05-08 15:52:00,70.0,50.0,-100.00,SSW,198,12.0,18.0,50,0.00,,,-99.99,1051.000000,,2013-05-08 19:52:00,
2013-05-08 16:02:00,70.0,50.0,-100.00,SSW,198,12.0,18.0,50,0.00,,,-99.99,1051.000000,,2013-05-08 20:02:00,
2013-05-08 16:32:00,71.0,51.0,-100.00,SSW,207,10.0,19.0,50,0.00,,,0.00,919.000000,,2013-05-08 20:32:00,
2013-05-08 16:42:00,71.0,51.0,-100.00,SSW,207,10.0,19.0,50,0.00,,,0.00,919.000000,,2013-05-08 20:42:00,
2013-05-08 16:52:00,71.0,51.0,-100.00,SSW,207,10.0,19.0,50,0.00,,,0.00,919.000000,,2013-05-08 20:52:00,
2013-05-08 17:02:00,71.0,51.0,-100.00,SSW,207,10.0,19.0,50,0.00,,,0.00,919.000000,,2013-05-08 21:02:00,
2013-05-08 17:33:00,69.0,55.0,-100.00,SSW,203,11.0,20.0,61,0.00,,,0.00,731.000000,,2013-05-08 21:33:00,
2013-05-08 17:43:00,69.0,55.0,-100.00,SSW,203,11.0,20.0,61,0.00,,,0.00,731.000000,,2013-05-08 21:43:00,
2013-05-08 17:53:00,69.0,55.0,-100.00,SSW,203,11.0,20.0,61,0.00,,,0.00,731.000000,,2013-05-08 21:53:00,
2013-05-08 18:03:00,69.0,55.0,-100.00,SSW,203,11.0,20.0,61,0.00,,,0.00,731.000000,,2013-05-08 22:03:00,
2013-05-08 18:33:00,68.0,54.0,-100.00,SSW,203,12.0,21.0,61,0.00,,,0.00,507.000000,,2013-05-08 22:33:00,
2013-05-08 18:42:00,68.0,54.0,-100.00,SSW,203,12.0,21.0,61,0.00,,,0.00,507.000000,,2013-05-08 22:42:00,
2013-05-08 18:53:00,68.0,54.0,-100.00,SSW,203,12.0,21.0,61,0.00,,,0.00,507.000000,,2013-05-08 22:53:00,
2013-05-08 19:02:00,68.0,54.0,-100.00,SSW,203,12.0,21.0,61,0.00,,,0.00,507.000000,,2013-05-08 23:02:00,
2013-05-08 19:33:00,67.0,56.0,-100.00,SSW,202,9.0,19.0,69,0.00,,,0.00,269.000000,,2013-05-08 23:33:00,
2013-05-08 19:42:00,67.0,56.0,-100.00,SSW,202,9.0,19.0,69,0.00,,,0.00,269.000000,,2013-05-08 23:42:00,
2013-05-08 19:53:00,67.0,56.0,-100.00,SSW,202,9.0,19.0,69,0.00,,,0.00,269.000000,,2013-05-08 23:53:00,
2013-05-08 20:02:00,67.0,56.0,-100.00,SSW,202,9.0,19.0,69,0.00,,,0.00,269.000000,,2013-05-09 00:02:00,
2013-05-08 21:32:00,65.0,58.0,-100.00,SSW,212,8.0,14.0,79,-99.99,,,0.00,0.000000,,2013-05-09 01:32:00,
2013-05-08 21:42:00,65.0,58.0,-100.00,SSW,212,8.0,14.0,79,-99.99,,,0.00,0.000000,,2013-05-09 01:42:00,
2013-05-08 21:53:00,65.0,58.0,-100.00,SSW,212,8.0,14.0,79,-99.99,,,0.00,0.000000,,2013-05-09 01:53:00,
2013-05-08 22:02:00,65.0,58.0,-100.00,SSW,212,8.0,14.0,79,-99.99,,,0.00,0.000000,,2013-05-09 02:02:00,
2013-05-08 22:33:00,66.0,59.0,-100.00,SW,222,9.0,18.0,79,0.00,,,0.00,0.000000,,2013-05-09 02:33:00,
2013-05-08 22:42:00,66.0,59.0,-100.00,SW,222,9.0,18.0,79,0.00,,,0.00,0.000000,,2013-05-09 02:42:00,
2013-05-08 22:52:00,66.0,59.0,-100.00,SW,222,9.0,18.0,79,0.00,,,0.00,0.000000,,2013-05-09 02:52:00,
2013-05-08 23:02:00,66.0,59.0,-100.00,SW,222,9.0,18.0,79,0.00,,,0.00,0.000000,,2013-05-09 03:02:00,
2013-05-08 23:33:00,66.0,58.0,-100.00,SW,223,8.0,16.0,76,0.00,,,0.00,0.000000,,2013-05-09 03:33:00,
2013-05-08 23:43:00,66.0,58.0,-100.00,SW,223,8.0,16.0,76,0.00,,,0.00,0.000000,,2013-05-09 03:43:00,
2013-05-08 23:53:00,66.0,58.0,-100.00,SW,223,8.0,16.0,76,0.00,,,0.00,0.000000,,2013-05-09 03:53:00,